Time;durP1;ratioP1;P1;durP2;ratioP2;P2;SDS_P1;SDS_P2;PMS_P1;PMS_P2;Temp;Humidity;BMP_temperature;BMP_pressure;BME280_temperature;BME280_humidity;BME280_pressure;Samples;Min_cycle;Max_cycle;Signal;HPM_P1;HPM_P2
2022/01/28 00:00:13;;;;;;;15.88;2.33;;;;;;;2.26;51.71;102218.16;4987546;28;20125;-73
2022/01/28 00:02:38;;;;;;;24.38;3.22;;;;;;;3.23;49.94;102214.38;4985476;28;20053;-75
2022/01/28 00:19:05;;;;;;;15.80;1.55;;;;;;;2.88;48.77;102247.47;4985751;28;20037;-74
2022/01/28 00:40:28;;;;;;;24.00;2.13;;;;;;;2.95;48.73;102273.41;5023636;28;20033;-73
2022/01/28 00:42:53;;;;;;;11.80;1.58;;;;;;;3.06;48.56;102273.56;4991820;28;20054;-73
2022/01/28 00:45:19;;;;;;;14.30;0.70;;;;;;;2.56;49.08;102281.44;4988830;28;20025;-75
2022/01/28 00:47:46;;;;;;;17.67;1.23;;;;;;;2.66;48.68;102283.31;5006847;28;20045;-74
2022/01/28 00:50:13;;;;;;;6.57;0.85;;;;;;;2.42;47.57;102288.97;4993526;28;20699;-74
2022/01/28 00:52:38;;;;;;;10.57;1.05;;;;;;;2.52;47.07;102295.13;5005245;28;20061;-74
2022/01/28 00:55:04;;;;;;;12.05;2.03;;;;;;;2.44;47.93;102291.53;5006113;28;20510;-75
2022/01/28 00:57:30;;;;;;;8.48;1.20;;;;;;;2.58;47.03;102287.50;5007274;28;20053;-74
2022/01/28 00:59:56;;;;;;;18.02;1.33;;;;;;;2.27;48.00;102293.84;5006170;28;20461;-74
2022/01/28 01:02:21;;;;;;;14.63;1.38;;;;;;;2.95;46.77;102301.81;4989500;28;20088;-73
2022/01/28 01:04:47;;;;;;;19.60;2.40;;;;;;;2.66;47.28;102309.13;5006273;28;20029;-74
2022/01/28 01:07:12;;;;;;;19.52;2.30;;;;;;;2.83;47.31;102316.28;5007126;28;20065;-75
2022/01/28 01:09:38;;;;;;;9.57;1.20;;;;;;;2.52;47.78;102321.81;5006490;28;20053;-74
2022/01/28 01:12:04;;;;;;;22.35;1.95;;;;;;;2.64;46.94;102322.84;5020677;28;20099;-75
2022/01/28 01:14:30;;;;;;;16.17;2.42;;;;;;;2.51;47.86;102334.66;5011527;28;20040;-75
2022/01/28 01:17:18;;;;;;;14.75;1.80;;;;;;;3.00;46.74;102334.59;5003560;28;20034;-75
2022/01/28 01:19:45;;;;;;;25.08;1.83;;;;;;;3.02;46.63;102338.94;5007675;28;20289;-75
2022/01/28 01:22:12;;;;;;;22.35;2.17;;;;;;;2.52;47.18;102331.28;4999925;28;20034;-74
2022/01/28 01:24:47;;;;;;;8.68;1.15;;;;;;;2.89;46.48;102344.75;5014319;28;20394;-74
2022/01/28 01:27:13;;;;;;;13.57;2.25;;;;;;;2.41;47.66;102343.13;5010572;28;20037;-75
2022/01/28 01:29:43;;;;;;;8.40;1.45;;;;;;;2.43;47.45;102342.28;4996107;28;20041;-73
2022/01/28 01:32:15;;;;;;;15.80;1.58;;;;;;;3.00;46.38;102345.78;5008013;28;20037;-74
2022/01/28 01:34:40;;;;;;;;;;;;;;;3.44;45.40;102343.00;5026303;28;20053;-74
2022/01/28 01:37:09;;;;;;;19.45;2.58;;;;;;;2.51;47.35;102350.16;5010892;28;19922;-75
2022/01/28 01:39:37;;;;;;;7.43;1.20;;;;;;;3.09;45.63;102345.06;4993690;28;20510;-74
2022/01/28 01:42:16;;;;;;;11.60;1.00;;;;;;;2.80;45.32;102368.75;5007889;28;20044;-73
2022/01/28 01:52:46;;;;;;;11.73;1.45;;;;;;;3.41;43.93;102384.34;5007716;28;20045;-73
2022/01/28 01:55:12;;;;;;;16.42;1.70;;;;;;;3.31;44.45;102397.97;5011211;28;20460;-73
2022/01/28 01:57:39;;;;;;;18.00;1.52;;;;;;;3.01;45.16;102388.88;5008695;28;20064;-72
2022/01/28 02:00:06;;;;;;;10.82;1.58;;;;;;;3.01;45.35;102396.63;5009210;28;20030;-72
2022/01/28 02:02:31;;;;;;;15.50;2.28;;;;;;;3.04;45.25;102413.88;5009983;28;20041;-72
2022/01/28 02:04:57;;;;;;;15.15;2.05;;;;;;;3.02;44.22;102415.56;5024811;28;20224;-73
2022/01/28 02:07:24;;;;;;;8.52;0.85;;;;;;;2.84;43.86;102398.06;5006570;28;20042;-74
2022/01/28 02:09:50;;;;;;;17.15;1.50;;;;;;;2.83;44.00;102414.41;5006462;28;20463;-75
2022/01/28 02:12:15;;;;;;;14.20;1.73;;;;;;;3.06;43.42;102413.06;5000186;28;20026;-74
2022/01/28 02:14:42;;;;;;;11.52;0.82;;;;;;;3.22;43.30;102429.66;4996619;28;20538;-74
2022/01/28 02:17:08;;;;;;;12.68;1.88;;;;;;;3.04;43.48;102432.81;5015053;28;20034;-75
2022/01/28 02:19:35;;;;;;;16.77;1.30;;;;;;;2.92;43.95;102440.38;5008646;28;20032;-73
2022/01/28 02:22:00;;;;;;;15.43;1.55;;;;;;;3.21;43.52;102433.09;5008756;28;20091;-73
2022/01/28 02:24:35;;;;;;;18.60;2.60;;;;;;;3.05;43.63;102442.34;5009492;28;20029;-73
2022/01/28 02:27:00;;;;;;;19.08;1.63;;;;;;;3.14;43.96;102436.44;4997005;28;20033;-73
2022/01/28 02:29:31;;;;;;;26.40;2.35;;;;;;;3.11;44.29;102457.94;5010739;28;20037;-73
2022/01/28 02:31:59;;;;;;;20.80;2.63;;;;;;;2.93;43.91;102450.72;5008859;28;20056;-73
2022/01/28 02:34:25;;;;;;;18.20;1.70;;;;;;;2.88;43.82;102459.25;5007249;28;20153;-73
2022/01/28 02:36:51;;;;;;;16.90;1.33;;;;;;;3.15;43.23;102454.53;5007247;28;20113;-73
2022/01/28 02:39:17;;;;;;;20.98;2.40;;;;;;;3.31;42.68;102470.31;5007026;28;20061;-73
2022/01/28 02:41:46;;;;;;;10.75;1.85;;;;;;;3.35;43.21;102479.88;5007854;28;20438;-73
2022/01/28 02:46:41;;;;;;;9.25;1.27;;;;;;;3.34;43.67;102480.72;5011069;28;20033;-73
2022/01/28 02:49:10;;;;;;;10.38;1.05;;;;;;;3.16;43.62;102469.22;5001054;28;20049;-73
2022/01/28 02:51:36;;;;;;;9.20;1.00;;;;;;;2.45;45.75;102484.28;5011702;28;20371;-73
2022/01/28 02:54:12;;;;;;;14.38;2.10;;;;;;;2.92;44.96;102482.56;5005573;28;20042;-74
2022/01/28 02:56:45;;;;;;;11.65;1.70;;;;;;;2.42;46.54;102491.94;5010000;28;20030;-73
2022/01/28 02:59:11;;;;;;;12.98;1.48;;;;;;;2.56;46.21;102483.63;5023864;28;20069;-73
2022/01/28 03:01:36;;;;;;;15.52;1.63;;;;;;;2.46;46.74;102478.25;5011051;28;20479;-72
2022/01/28 03:04:04;;;;;;;7.53;1.48;;;;;;;2.92;46.25;102494.63;5007601;28;20040;-73
2022/01/28 03:06:29;;;;;;;15.27;1.65;;;;;;;3.01;46.18;102492.19;5007863;28;20042;-74
2022/01/28 03:09:12;;;;;;;19.50;2.28;;;;;;;2.96;46.74;102504.19;4988871;28;20076;-73
2022/01/28 03:17:11;;;;;;;18.42;1.15;;;;;;;2.73;47.41;102525.28;5022176;28;20512;-73
2022/01/28 03:19:47;;;;;;;;;;;;;;;3.23;46.63;102539.09;5007037;28;20266;-73
2022/01/28 03:22:13;;;;;;;12.30;1.08;;;;;;;2.95;47.85;102560.09;4998199;28;19921;-73
2022/01/28 03:24:40;;;;;;;14.32;1.52;;;;;;;2.82;48.98;102555.53;5008448;28;20479;-72
2022/01/28 03:27:11;;;;;;;13.38;1.02;;;;;;;2.89;48.59;102556.53;4998439;28;20126;-73
2022/01/28 03:29:37;;;;;;;17.30;1.92;;;;;;;2.55;50.04;102551.59;5008419;28;20037;-75
2022/01/28 03:32:03;;;;;;;13.68;1.52;;;;;;;2.50;49.66;102557.50;5008385;28;20048;-74
2022/01/28 03:34:28;;;;;;;7.30;1.23;;;;;;;2.55;49.55;102553.28;5012944;28;20508;-74
2022/01/28 03:36:56;;;;;;;8.43;0.85;;;;;;;2.94;48.27;102549.75;5006448;28;20655;-74
2022/01/28 03:39:21;;;;;;;12.95;1.30;;;;;;;2.71;48.76;102564.78;5010045;28;20025;-74
2022/01/28 03:41:47;;;;;;;22.25;1.85;;;;;;;2.87;48.25;102555.66;5009740;28;20049;-73
2022/01/28 03:44:12;;;;;;;17.92;0.98;;;;;;;2.93;47.18;102566.09;5008864;28;20039;-75
2022/01/28 03:46:38;;;;;;;13.80;2.30;;;;;;;2.81;46.78;102566.72;4995218;28;20057;-74
2022/01/28 03:49:04;;;;;;;18.63;1.55;;;;;;;2.35;46.51;102563.19;5008401;28;20038;-74
2022/01/28 03:51:29;;;;;;;9.82;1.20;;;;;;;2.71;45.62;102567.38;5009367;28;20037;-73
2022/01/28 03:53:56;;;;;;;13.38;1.10;;;;;;;3.39;44.33;102572.13;5014275;28;20108;-73
2022/01/28 03:56:22;;;;;;;15.90;1.40;;;;;;;3.10;44.09;102569.00;5004209;28;20037;-73
2022/01/28 03:58:47;;;;;;;10.40;1.50;;;;;;;2.84;43.76;102579.69;5007405;28;20585;-74
2022/01/28 04:01:17;;;;;;;13.13;0.90;;;;;;;3.03;43.68;102585.25;5007983;28;20495;-73
2022/01/28 04:04:43;;;;;;;8.15;1.60;;;;;;;3.35;43.03;102586.72;5007621;28;20053;-74
2022/01/28 04:12:00;;;;;;;10.98;1.52;;;;;;;2.51;49.88;102634.09;5025468;28;20406;-72
2022/01/28 04:17:39;;;;;;;17.10;1.90;;;;;;;2.28;49.40;102618.97;5005571;28;20042;-73
2022/01/28 04:19:40;;;;;;;17.98;2.38;;;;;;;2.23;49.88;102622.28;5002350;28;20107;-72
2022/01/28 04:22:05;;;;;;;22.77;2.28;;;;;;;1.93;50.63;102642.25;5009638;28;20037;-73
2022/01/28 04:24:31;;;;;;;13.02;1.58;;;;;;;1.86;50.74;102642.03;5006023;28;20095;-73
2022/01/28 04:26:58;;;;;;;18.42;1.95;;;;;;;2.42;49.44;102645.09;5006009;28;20037;-72
2022/01/28 04:29:23;;;;;;;14.43;2.58;;;;;;;2.29;48.64;102649.09;5021736;28;20069;-73
2022/01/28 04:31:49;;;;;;;13.65;2.50;;;;;;;2.63;46.41;102647.28;5004597;28;20033;-73
2022/01/28 04:34:15;;;;;;;16.48;1.52;;;;;;;3.07;44.84;102646.44;5022320;28;20044;-73
2022/01/28 04:36:52;;;;;;;17.25;1.73;;;;;;;3.09;44.52;102640.47;5007038;28;20038;-73
2022/01/28 04:39:26;;;;;;;14.52;1.30;;;;;;;2.68;43.93;102643.06;5005412;28;20054;-73
2022/01/28 04:44:27;;;;;;;13.75;1.13;;;;;;;3.01;41.76;102656.66;5021542;28;20037;-72
2022/01/28 04:47:06;;;;;;;24.95;1.73;;;;;;;3.17;41.10;102653.53;5007004;28;20033;-71
2022/01/28 04:50:22;;;;;;;17.65;1.40;;;;;;;3.19;41.00;102655.31;5006524;28;20208;-69
2022/01/28 05:02:55;;;;;;;15.70;2.78;;;;;;;3.18;40.59;102681.13;5009627;28;20077;-71
2022/01/28 05:28:48;;;;;;;15.60;1.80;;;;;;;3.33;41.60;102737.44;5025125;28;20063;-72
2022/01/28 05:31:15;;;;;;;20.65;2.08;;;;;;;3.12;41.50;102750.75;5012696;28;20030;-72
2022/01/28 05:33:41;;;;;;;25.98;3.75;;;;;;;3.05;39.92;102760.09;5015141;28;20067;-72
2022/01/28 05:36:06;;;;;;;12.30;1.25;;;;;;;3.56;38.74;102743.94;5011219;28;20757;-72
2022/01/28 05:38:32;;;;;;;14.63;1.13;;;;;;;3.48;38.97;102747.22;5009954;28;20418;-72
2022/01/28 05:40:57;;;;;;;24.58;2.20;;;;;;;2.95;40.20;102747.81;5008337;28;20053;-71
2022/01/28 05:43:23;;;;;;;13.48;1.90;;;;;;;3.33;40.33;102750.34;5009378;28;20049;-71
2022/01/28 05:45:48;;;;;;;12.43;1.70;;;;;;;3.21;40.80;102769.03;5008137;28;20042;-71
2022/01/28 05:48:16;;;;;;;17.48;2.78;;;;;;;3.06;41.42;102764.41;5008829;28;20034;-72
2022/01/28 05:50:41;;;;;;;11.07;1.30;;;;;;;3.14;41.28;102775.78;4995856;28;20061;-71
2022/01/28 05:53:07;;;;;;;18.08;2.35;;;;;;;3.34;40.54;102773.66;5008238;28;20127;-71
2022/01/28 05:55:34;;;;;;;11.48;1.42;;;;;;;3.22;40.24;102781.09;5009618;28;20034;-73
2022/01/28 05:58:02;;;;;;;18.38;2.85;;;;;;;2.98;40.25;102778.88;4991104;28;20033;-71
2022/01/28 06:00:28;;;;;;;29.77;1.70;;;;;;;3.05;40.94;102793.69;5028160;28;20029;-72
2022/01/28 06:02:53;;;;;;;22.48;2.85;;;;;;;3.44;40.27;102800.56;5013513;28;21029;-73
2022/01/28 06:05:19;;;;;;;19.25;2.30;;;;;;;3.15;40.82;102790.44;5009381;28;20022;-72
2022/01/28 06:07:44;;;;;;;10.13;0.93;;;;;;;3.22;40.70;102795.75;5007672;28;20569;-71
2022/01/28 06:10:11;;;;;;;16.67;1.60;;;;;;;3.03;40.06;102790.19;5009263;28;20040;-73
2022/01/28 06:12:45;;;;;;;15.68;2.67;;;;;;;3.25;39.94;102801.88;5007182;28;20398;-73
2022/01/28 06:15:11;;;;;;;7.25;0.93;;;;;;;3.33;40.02;102800.34;5025392;28;20124;-72
2022/01/28 06:17:37;;;;;;;22.45;1.58;;;;;;;3.27;40.38;102809.63;5013188;28;20531;-73
2022/01/28 06:20:05;;;;;;;17.40;1.95;;;;;;;3.27;40.64;102814.81;5025027;28;20481;-72
2022/01/28 06:22:31;;;;;;;12.57;1.08;;;;;;;3.55;40.54;102812.00;5023862;28;20042;-73
2022/01/28 06:24:56;;;;;;;17.70;1.40;;;;;;;3.14;41.45;102824.88;5008645;28;20056;-72
2022/01/28 06:27:22;;;;;;;25.42;2.50;;;;;;;3.46;41.22;102816.97;5008011;28;20110;-72
2022/01/28 06:29:49;;;;;;;23.08;2.10;;;;;;;3.09;42.02;102821.34;5008204;28;20032;-72
2022/01/28 06:32:16;;;;;;;17.25;1.30;;;;;;;3.65;41.60;102830.28;5010190;28;20402;-74
2022/01/28 06:34:42;;;;;;;12.68;1.55;;;;;;;2.99;43.28;102837.44;5024109;28;20111;-73
2022/01/28 06:37:07;;;;;;;8.02;1.55;;;;;;;3.44;42.54;102826.41;5008197;28;20498;-72
2022/01/28 06:39:33;;;;;;;14.77;1.85;;;;;;;3.26;41.99;102844.09;5006356;28;20084;-73
2022/01/28 06:41:59;;;;;;;36.72;2.30;;;;;;;3.49;40.84;102839.44;5009409;28;20053;-72
2022/01/28 06:44:25;;;;;;;17.45;3.08;;;;;;;3.38;39.99;102831.44;5008451;28;20038;-72
2022/01/28 06:46:51;;;;;;;25.85;2.70;;;;;;;3.44;39.38;102848.81;5014339;28;20181;-72
2022/01/28 06:49:16;;;;;;;14.98;1.77;;;;;;;3.27;39.52;102845.81;5006736;28;20065;-73
2022/01/28 06:51:42;;;;;;;14.65;1.63;;;;;;;3.24;39.25;102848.34;5021657;28;20418;-73
2022/01/28 06:54:07;;;;;;;15.40;0.95;;;;;;;3.46;39.28;102848.00;5015396;28;20619;-72
2022/01/28 06:56:33;;;;;;;18.65;1.27;;;;;;;3.73;38.85;102846.84;5006203;28;20068;-73
2022/01/28 06:58:58;;;;;;;20.75;1.73;;;;;;;3.42;39.68;102863.41;5007359;28;20069;-73
2022/01/28 07:01:24;;;;;;;15.60;1.73;;;;;;;3.44;40.21;102854.84;5006896;28;20179;-72
2022/01/28 07:03:49;;;;;;;8.43;1.10;;;;;;;3.40;39.82;102863.38;5009275;28;20479;-73
2022/01/28 07:06:14;;;;;;;21.60;2.33;;;;;;;3.27;40.35;102871.66;5007266;28;20037;-73
2022/01/28 07:08:40;;;;;;;15.98;1.85;;;;;;;3.07;40.48;102859.19;5022714;28;20037;-73
2022/01/28 07:11:05;;;;;;;9.85;1.65;;;;;;;3.63;39.74;102856.13;5006368;28;20932;-73
2022/01/28 07:13:31;;;;;;;10.55;2.40;;;;;;;3.17;39.54;102847.34;5022552;28;20156;-73
2022/01/28 07:15:56;;;;;;;20.83;1.70;;;;;;;3.38;39.44;102849.53;5007202;28;20118;-73
2022/01/28 07:18:24;;;;;;;11.73;1.13;;;;;;;3.69;38.02;102865.72;5012484;28;20406;-73
2022/01/28 07:20:50;;;;;;;11.23;1.38;;;;;;;3.39;38.47;102871.97;5006611;28;20505;-73
2022/01/28 07:23:15;;;;;;;10.50;1.75;;;;;;;3.58;38.00;102868.97;5009452;28;20080;-73
2022/01/28 07:25:41;;;;;;;18.00;1.45;;;;;;;3.79;38.25;102878.00;5006298;28;20483;-73
2022/01/28 07:28:07;;;;;;;10.57;1.92;;;;;;;3.75;38.13;102884.81;5006775;28;20075;-72
2022/01/28 07:30:32;;;;;;;13.77;2.35;;;;;;;3.77;38.35;102879.69;5009531;28;20065;-72
2022/01/28 07:32:59;;;;;;;9.23;1.77;;;;;;;3.46;38.96;102886.78;5004995;28;20091;-72
2022/01/28 07:35:25;;;;;;;8.50;1.80;;;;;;;3.70;38.74;102893.34;5024964;28;20049;-73
2022/01/28 07:37:50;;;;;;;10.35;1.52;;;;;;;3.85;39.31;102893.66;5006778;28;20329;-73
2022/01/28 07:40:16;;;;;;;10.77;1.63;;;;;;;3.96;39.71;102896.44;5008798;28;20030;-73
2022/01/28 07:42:42;;;;;;;19.50;0.90;;;;;;;3.88;40.09;102909.22;5005774;28;20037;-72
2022/01/28 07:45:11;;;;;;;19.85;1.83;;;;;;;3.62;40.85;102905.22;5007318;28;20406;-72
2022/01/28 07:47:36;;;;;;;15.48;1.35;;;;;;;3.71;39.97;102910.59;5005843;28;20583;-73
2022/01/28 07:50:04;;;;;;;6.72;0.70;;;;;;;3.79;39.46;102911.63;5007004;28;20495;-73
2022/01/28 07:52:29;;;;;;;10.45;1.42;;;;;;;3.55;39.12;102923.19;5007462;28;20103;-72
2022/01/28 07:54:55;;;;;;;11.20;2.03;;;;;;;3.63;38.72;102931.13;5013242;28;20276;-73
2022/01/28 07:57:20;;;;;;;13.90;1.42;;;;;;;3.97;38.49;102922.34;5016017;28;20495;-73
2022/01/28 07:59:46;;;;;;;18.52;0.98;;;;;;;3.55;39.59;102925.75;5007982;28;20092;-74
2022/01/28 08:02:11;;;;;;;21.05;1.83;;;;;;;3.32;40.18;102924.38;4993514;28;20049;-75
2022/01/28 08:04:38;;;;;;;10.05;0.65;;;;;;;3.78;39.68;102926.28;5006142;28;20029;-73
2022/01/28 08:07:04;;;;;;;15.98;1.77;;;;;;;3.74;39.16;102923.59;5013468;28;20038;-74
2022/01/28 08:09:29;;;;;;;20.30;1.42;;;;;;;4.02;38.74;102930.22;4990396;28;20039;-73
2022/01/28 08:11:55;;;;;;;6.50;1.52;;;;;;;4.09;38.67;102928.63;5008136;28;20129;-74
2022/01/28 08:14:20;;;;;;;6.25;1.05;;;;;;;3.92;39.52;102941.22;5005654;28;20129;-74
2022/01/28 08:16:46;;;;;;;10.90;1.92;;;;;;;3.75;39.72;102953.78;4992558;28;20175;-74
2022/01/28 08:19:11;;;;;;;10.75;1.10;;;;;;;4.12;39.47;102949.38;5007814;28;20029;-73
2022/01/28 08:21:37;;;;;;;11.48;1.00;;;;;;;4.01;39.56;102955.22;5005809;28;20034;-74
2022/01/28 08:24:02;;;;;;;17.20;2.47;;;;;;;3.81;39.97;102959.09;5005624;28;20030;-74
2022/01/28 08:26:28;;;;;;;7.07;1.17;;;;;;;3.76;40.60;102971.03;5007977;28;20121;-74
2022/01/28 08:28:53;;;;;;;11.18;1.40;;;;;;;4.31;39.61;102967.03;5012369;28;20041;-73
2022/01/28 08:31:19;;;;;;;11.07;2.13;;;;;;;3.72;40.38;102977.00;5007596;28;20506;-74
2022/01/28 08:33:45;;;;;;;21.15;1.23;;;;;;;3.81;39.93;102982.38;5008860;28;20569;-73
2022/01/28 08:36:11;;;;;;;11.07;2.35;;;;;;;4.00;39.84;102988.81;5008286;28;20672;-74
2022/01/28 08:38:43;;;;;;;8.85;1.17;;;;;;;4.13;39.38;102993.41;5006701;28;20044;-73
2022/01/28 08:41:11;;;;;;;10.75;1.10;;;;;;;3.56;40.53;102997.34;5009950;28;20510;-73
2022/01/28 08:43:37;;;;;;;8.52;1.73;;;;;;;3.78;40.05;103010.75;5012749;28;20073;-73
2022/01/28 08:46:04;;;;;;;9.77;2.30;;;;;;;4.22;39.52;103010.84;5022671;28;20064;-74
2022/01/28 08:48:29;;;;;;;11.32;1.27;;;;;;;3.92;39.89;103011.94;5006112;28;20046;-74
2022/01/28 08:50:55;;;;;;;30.35;2.53;;;;;;;3.95;40.24;103021.50;5005495;28;20048;-73
2022/01/28 08:53:21;;;;;;;9.35;1.05;;;;;;;3.92;40.73;103011.94;5004156;28;20046;-75
2022/01/28 08:55:46;;;;;;;13.90;1.80;;;;;;;4.13;40.37;103021.00;5008494;28;20029;-74
2022/01/28 08:58:13;;;;;;;13.00;1.88;;;;;;;4.24;40.21;103032.47;5005719;28;20037;-74
2022/01/28 09:00:39;;;;;;;19.13;2.10;;;;;;;4.27;40.50;103035.09;5014814;28;20034;-74
2022/01/28 09:03:05;;;;;;;23.40;1.35;;;;;;;4.35;40.44;103032.69;5022727;28;20087;-73
2022/01/28 09:05:30;;;;;;;13.55;2.00;;;;;;;4.22;40.74;103039.31;5007459;28;20442;-74
2022/01/28 09:07:56;;;;;;;25.83;1.92;;;;;;;4.45;40.61;103044.97;5004440;28;20037;-74
2022/01/28 09:10:29;;;;;;;16.08;1.98;;;;;;;4.53;40.59;103034.78;5005723;28;20030;-74
2022/01/28 09:13:37;;;;;;;13.23;1.67;;;;;;;4.42;41.39;103045.78;5005727;28;20447;-74
2022/01/28 09:15:47;;;;;;;;;;;;;;;4.81;40.86;103052.59;5018930;28;20041;-74
2022/01/28 09:18:12;;;;;;;16.90;2.25;;;;;;;4.76;41.06;103061.13;5011325;28;19986;-73
2022/01/28 09:20:38;;;;;;;13.55;2.05;;;;;;;4.97;40.64;103058.97;5003316;28;20030;-74
2022/01/28 09:23:04;;;;;;;14.60;1.38;;;;;;;4.92;40.86;103054.53;5005806;28;20511;-75
2022/01/28 09:25:30;;;;;;;20.13;1.95;;;;;;;4.91;40.89;103060.59;5006187;28;20026;-74
2022/01/28 09:27:56;;;;;;;16.55;1.63;;;;;;;5.06;40.91;103053.09;5005768;28;20128;-74
2022/01/28 09:30:22;;;;;;;19.50;1.80;;;;;;;5.12;40.76;103058.38;5006186;28;20070;-73
2022/01/28 09:32:47;;;;;;;16.27;1.95;;;;;;;5.02;41.03;103064.25;5004364;28;20109;-74
2022/01/28 09:35:13;;;;;;;18.38;1.73;;;;;;;5.37;40.80;103064.88;5006134;28;20470;-73
2022/01/28 09:37:39;;;;;;;16.90;2.33;;;;;;;5.60;40.42;103075.63;5007352;28;20234;-73
2022/01/28 09:40:05;;;;;;;22.00;1.60;;;;;;;5.94;39.18;103081.31;5024014;28;20588;-73
2022/01/28 09:42:34;;;;;;;15.73;1.55;;;;;;;5.82;39.61;103088.94;5020900;28;20418;-73
2022/01/28 09:45:03;;;;;;;19.35;2.28;;;;;;;5.80;39.44;103088.91;5026942;28;20030;-73
2022/01/28 09:47:30;;;;;;;17.90;2.10;;;;;;;5.83;39.44;103091.53;5010101;28;20034;-73
2022/01/28 09:49:56;;;;;;;30.15;2.70;;;;;;;5.74;40.57;103086.22;5010004;28;20033;-74
2022/01/28 09:52:22;;;;;;;16.48;1.95;;;;;;;5.70;40.15;103080.94;5022907;28;20053;-73
2022/01/28 09:54:48;;;;;;;13.35;1.98;;;;;;;5.66;40.01;103083.50;5009504;28;20040;-73
2022/01/28 09:57:18;;;;;;;24.35;2.80;;;;;;;5.36;40.30;103085.59;5013366;28;20588;-74
2022/01/28 09:59:44;;;;;;;13.95;1.95;;;;;;;5.51;39.95;103082.38;5025216;28;20080;-73
2022/01/28 10:02:10;;;;;;;12.73;2.08;;;;;;;5.43;39.89;103087.44;5011984;28;20213;-73
2022/01/28 10:04:35;;;;;;;12.75;1.95;;;;;;;5.49;39.79;103084.94;5010085;28;20041;-72
2022/01/28 10:07:12;;;;;;;18.33;1.95;;;;;;;5.48;39.72;103091.00;5017137;28;20060;-73
2022/01/28 10:09:53;;;;;;;13.88;1.67;;;;;;;5.52;39.40;103099.69;5007730;28;20034;-74
2022/01/28 10:12:25;;;;;;;18.58;1.85;;;;;;;5.73;39.36;103101.78;5014977;28;20066;-74
2022/01/28 10:15:05;;;;;;;10.80;1.75;;;;;;;5.50;40.05;103097.06;5006083;28;20033;-73
2022/01/28 10:17:54;;;;;;;17.13;2.08;;;;;;;5.59;39.80;103101.53;5008844;28;20067;-73
2022/01/28 10:20:21;;;;;;;17.60;2.05;;;;;;;5.48;40.11;103109.16;5009686;28;20030;-73
2022/01/28 10:22:55;;;;;;;22.00;2.13;;;;;;;5.62;39.83;103112.84;5004778;28;20038;-73
2022/01/28 10:25:34;;;;;;;6.20;1.92;;;;;;;5.69;39.99;103108.63;4996592;28;20087;-74
2022/01/28 10:28:00;;;;;;;23.35;1.98;;;;;;;5.72;39.65;103105.19;5015459;28;20124;-73
2022/01/28 10:30:26;;;;;;;5.43;1.08;;;;;;;5.59;40.53;103118.00;5025009;28;20052;-74
2022/01/28 10:33:16;;;;;;;14.15;2.03;;;;;;;5.62;39.85;103128.41;5007634;28;20079;-74
2022/01/28 10:36:04;;;;;;;25.20;2.35;;;;;;;5.60;40.29;103124.03;5025421;28;20075;-75
2022/01/28 10:38:37;;;;;;;19.63;1.65;;;;;;;5.90;40.36;103118.47;5016206;28;20491;-73
2022/01/28 10:41:06;;;;;;;10.80;1.42;;;;;;;5.58;40.82;103126.59;4996394;28;20162;-73
2022/01/28 10:43:31;;;;;;;11.45;1.75;;;;;;;5.41;41.00;103130.63;5025489;28;20533;-73
2022/01/28 10:46:04;;;;;;;27.08;2.08;;;;;;;5.59;40.67;103123.19;5012323;28;20112;-74
2022/01/28 10:48:30;;;;;;;12.30;1.42;;;;;;;5.61;40.36;103129.28;5013296;28;20136;-74
2022/01/28 10:50:58;;;;;;;32.22;1.40;;;;;;;5.14;41.39;103131.00;5008639;28;20594;-73
2022/01/28 10:53:26;;;;;;;23.77;2.40;;;;;;;5.22;41.41;103129.44;5010925;28;20115;-75
2022/01/28 10:55:54;;;;;;;27.33;1.65;;;;;;;5.42;40.86;103128.06;5008269;28;20426;-74
2022/01/28 10:58:21;;;;;;;18.08;2.45;;;;;;;5.59;40.61;103143.94;5006500;28;20156;-74
2022/01/28 11:00:49;;;;;;;26.25;2.92;;;;;;;5.86;40.44;103143.50;5004564;28;20040;-74
2022/01/28 11:03:16;;;;;;;10.30;1.50;;;;;;;5.76;40.63;103141.59;5006549;28;20568;-74
2022/01/28 11:05:43;;;;;;;20.80;2.20;;;;;;;5.55;41.34;103146.44;5022900;28;20038;-73
2022/01/28 11:08:13;;;;;;;23.45;2.17;;;;;;;5.57;41.64;103139.53;5013560;28;20576;-73
2022/01/28 11:10:41;;;;;;;24.63;2.47;;;;;;;6.02;40.64;103143.75;4994953;28;20084;-73
2022/01/28 11:13:06;;;;;;;22.02;3.53;;;;;;;6.04;40.37;103136.88;5006001;28;20116;-74
2022/01/28 11:15:32;;;;;;;14.43;1.48;;;;;;;5.84;40.33;103144.34;5021565;28;20165;-73
2022/01/28 11:18:01;;;;;;;8.65;1.20;;;;;;;5.49;40.73;103138.56;5006090;28;20045;-73
2022/01/28 11:20:34;;;;;;;15.77;1.52;;;;;;;6.20;40.24;103132.78;5008052;28;20475;-75
2022/01/28 11:23:22;;;;;;;16.48;1.58;;;;;;;6.07;40.04;103140.38;5013568;28;20037;-73
2022/01/28 11:26:12;;;;;;;21.17;2.63;;;;;;;5.76;41.04;103133.81;5004853;28;20038;-73
2022/01/28 11:28:46;;;;;;;16.65;1.58;;;;;;;5.80;40.77;103134.75;5010985;28;20033;-76
2022/01/28 11:31:13;;;;;;;13.75;2.22;;;;;;;5.99;40.42;103131.56;5024294;28;20506;-73
2022/01/28 11:33:48;;;;;;;8.93;1.30;;;;;;;5.62;40.18;103138.78;5008391;28;20037;-73
2022/01/28 11:36:29;;;;;;;24.95;2.00;;;;;;;5.63;39.80;103137.06;5007358;28;20430;-73
2022/01/28 11:38:56;;;;;;;21.98;1.92;;;;;;;5.79;38.89;103141.66;5023921;28;20048;-73
2022/01/28 11:41:26;;;;;;;7.43;1.75;;;;;;;5.76;38.58;103131.22;5023412;28;20028;-73
2022/01/28 11:43:55;;;;;;;16.90;1.85;;;;;;;5.76;38.95;103135.53;5007557;28;20037;-73
2022/01/28 11:46:24;;;;;;;34.15;2.88;;;;;;;5.75;39.43;103133.78;5007298;28;20048;-73
2022/01/28 11:48:55;;;;;;;16.05;2.35;;;;;;;5.63;39.53;103137.06;4992279;28;20497;-73
2022/01/28 11:51:23;;;;;;;19.10;1.67;;;;;;;5.36;39.69;103135.72;5009257;28;20069;-73
2022/01/28 11:53:58;;;;;;;17.08;1.33;;;;;;;4.92;40.00;103135.78;5002801;28;20184;-73
2022/01/28 11:56:24;;;;;;;20.08;1.48;;;;;;;5.24;40.29;103131.19;5014736;28;20041;-73
2022/01/28 11:58:51;;;;;;;8.40;1.13;;;;;;;5.23;39.95;103136.34;5004141;28;20038;-74
2022/01/28 12:01:22;;;;;;;11.80;1.15;;;;;;;5.46;39.02;103137.66;5020323;28;20025;-73
2022/01/28 12:03:48;;;;;;;8.35;1.42;;;;;;;6.00;38.51;103127.28;4990419;28;20041;-72
2022/01/28 12:06:13;;;;;;;11.88;1.40;;;;;;;5.69;38.60;103128.50;5022182;28;20037;-73
2022/01/28 12:08:41;;;;;;;12.63;1.33;;;;;;;6.07;38.42;103119.59;5004002;28;20247;-72
2022/01/28 12:11:09;;;;;;;17.63;2.05;;;;;;;6.15;37.99;103111.03;5011641;28;20037;-73
2022/01/28 12:13:51;;;;;;;10.20;1.80;;;;;;;5.70;39.14;103110.34;5004253;28;20128;-73
2022/01/28 12:16:27;;;;;;;;;;;;;;;5.65;38.37;103118.06;5006426;28;20091;-73
2022/01/28 12:18:55;;;;;;;14.85;2.10;;;;;;;6.17;37.92;103111.94;5003187;28;19955;-73
2022/01/28 12:21:29;;;;;;;5.07;1.75;;;;;;;6.26;37.75;103109.47;5005703;28;20042;-73
2022/01/28 12:24:20;;;;;;;11.50;1.58;;;;;;;6.18;37.88;103109.38;5018291;28;20497;-73
2022/01/28 12:27:10;;;;;;;10.23;1.05;;;;;;;7.23;36.48;103102.84;5015471;28;20116;-73
2022/01/28 12:29:47;;;;;;;11.18;0.95;;;;;;;7.07;35.71;103094.91;5007336;28;20360;-72
2022/01/28 12:32:19;;;;;;;10.05;1.05;;;;;;;7.18;34.96;103097.59;5019464;28;20048;-72
2022/01/28 12:34:46;;;;;;;6.35;1.80;;;;;;;6.94;35.81;103094.75;5003173;28;20186;-73
2022/01/28 12:37:12;;;;;;;12.30;1.05;;;;;;;6.91;35.74;103099.06;5001756;28;20037;-73
2022/01/28 12:39:44;;;;;;;17.35;2.67;;;;;;;6.79;35.60;103091.13;5002765;28;20415;-73
2022/01/28 12:42:22;;;;;;;14.85;2.80;;;;;;;6.42;35.89;103095.00;4986403;28;20049;-73
2022/01/28 12:44:53;;;;;;;17.60;1.38;;;;;;;6.37;35.61;103089.72;5003177;28;20059;-73
2022/01/28 12:47:19;;;;;;;11.17;0.83;;;;;;;6.11;35.25;103098.88;5000179;28;20033;-73
2022/01/28 12:49:46;;;;;;;19.38;2.10;;;;;;;6.49;35.24;103095.09;5004257;28;20033;-73
2022/01/28 12:52:12;;;;;;;19.65;2.65;;;;;;;7.00;35.04;103095.69;5005617;28;20125;-74
2022/01/28 12:54:44;;;;;;;8.35;0.65;;;;;;;6.18;35.61;103093.78;5002474;28;20080;-74
2022/01/28 12:57:12;;;;;;;10.75;0.60;;;;;;;6.14;35.82;103093.72;5020650;28;20384;-74
2022/01/28 12:59:40;;;;;;;13.38;0.85;;;;;;;5.73;36.25;103096.59;4998888;28;20037;-73
2022/01/28 13:02:05;;;;;;;17.83;0.60;;;;;;;5.64;37.08;103095.56;5007256;28;20057;-72
2022/01/28 13:10:00;;;;;;;20.05;1.20;;;;;;;5.69;38.35;103089.59;4991793;28;20502;-74